Relevés horaires Beauvechain (Belgique)


Relevés horaires à Beauvechain - Mardi 15 Janv. 2019
Heure UTC1 Température [°C] Vent [km/h] Hum. [%] Pres.4 [hPa] Visi. [Km] Nébu. [octa] Préc.5 [mm] Cond.
2m. Res. Ros. Dir.2 Vit. Moy. Raf.3
23:00 5.3 3.2 3.9 SO 9.3 -- 18.5 91 1017.5(-1.1/3h) 20 -- -- NA
22:00 5.5 3 4.0 SO 11.1 -- 18.5 90 1018(-1.0/3h) 16 -- -- --
21:00 5.5 3 4.3 SO 11.1 -- 18.5 92 1018.3(-0.8/3h) 13 -- -- --
20:00 5.9 3.5 4.3 SO 11.1 -- 14.8 89 1018.6(-0.6/3h) 20 7/8 -- --
19:00 5.8 3.4 4.2 SO 11.1 -- 18.5 89 1019.1(-0.4/3h) 20 7/8 -- --
18:00 6.0 3.3 3.5 SO 13.0 -- 18.5 84 1019.2(-0.6/3h) 20 7/8 -- --
17:00 6.0 3.6 3.3 SO 11.1 -- 16.7 83 1019.2(-0.5/3h) 20 7/8 -- --
16:00 6.0 4 3.3 SO 9.3 -- 14.8 83 1019.6(-0.5/3h) 20 7/8 -- --
15:00 6.3 4.4 3.1 OSO 9.3 -- 16.7 80 1019.8(-0.6/3h) 20 7/8 -- --
14:00 6.4 4.5 3.1 OSO 9.3 -- 16.7 79 1019.8(-1.1/3h) 20 7/8 -- --
13:00 6.5 4.2 3.1 OSO 11.1 -- 16.7 79 1020.2(-1.2/3h) 20 7/8 -- --
12:00 6.6 4 2.6 OSO 13.0 -- 20.4 76 1020.5(-0.9/3h) 20 7/8 -- --
11:00 6.0 3.6 2.5 OSO 11.1 -- 16.7 78 1021.1(-0.2/3h) 20 7/8 -- --
10:00 5.4 3.3 2.4 OSO 9.3 -- 14.8 81 1021.5(0.0/3h) 20 6/8 -- --
09:00 4.8 3.1 2.8 SO 7.4 -- 13.0 87 1021.6(0.2/3h) 15 7/8 -- --
08:00 4.3 2 2.8 SO 9.3 -- 13.0 90 1021.5(-0.3/3h) 8 7/8 -- --
07:00 4.3 2.5 2.8 SO 7.4 -- 13.0 90 1021.5(-0.8/3h) 8 7/8 -- --
06:00 3.9 1.5 2.7 SO 9.3 -- 13.0 92 1021.5(-1.3/3h) 8 7/8 0.4/12h
--
05:00 3.5 1.5 2.6 SO 7.4 -- 9.3 94 1021.7(-1.0/3h) 7 -- -- --
04:00 3.0 1.6 2.2 SSO 5.6 -- 7.4 94 1022.3(-0.1/3h) 5 -- -- --
03:00 2.2 0.7 1.6 SSO 5.6 -- 7.4 96 1022.8(0.0/3h) 3.4 -- -- Du brouillard ou du brouillard glacé (plus correctement designé sous le nom de brume) est observé et la visibilité n'est ni inférieure à 5/8 de mille ni supérieure à 6 milles
02:00 2.4 0.9 1.6 SO 5.6 -- 7.4 94 1022.8(0.0/3h) 7 -- -- --
01:00 2.7 2.7 1.9 SO 3.7 -- 7.4 94 1022.5(-0.2/3h) 11 -- -- NA
00:00 3.0 3.0 1.9 OSO 3.7 -- 7.4 92 1022.7(0.3/3h) 20 -- 0.3/6h
NA

1 Coordinated Universal Time. Actuellement il est 07:00 locale et 05:00 UTC.

2 Le vent souffle depuis la direction indiquée vers la direction oposée.

3 Les rafales max. sont disponible 40 min après l'heure du relevé.

4 Pour les stations d'altitude (plus de 600m) le géopotentiel du niveau le plus proche de la pression obligatoire est indiqué.

5 Les stations disposant d'un diffuseur peuvent indiquer "trace". Cela signifie que des précipitations ont touchés le sol mais que la quantité est inférieure à 0.1 mm.

Récapitulatif de la journée
Température [°C] Vent [km/h] Ensoleillement4 [h] Precipitations totale5 [mm] Pression [Hpa]
Min1 Max.2 Moy.3 Max. Min Max.
2.0 6.6 0 20.4 0 h 0 min 0 1017.5 1022.8

1 Température minimale relevée entre 18:00 UTC la veille et 18:00 UTC le jour donné.

2 Température maximale relevée entre 06:00 UTC le jour donné et 06:00 UTC le lendemain.

3 Vent moyen de la journée basé sur les relevés horaires.

4 Ensoleillement en heures relevé entre 06:00 UTC la veille et 06:00 UTC le jour donné.

5 Précipitations totales tombées entre 06:00 UTC la jour donné et 06:00 UTC le lendemain.

Graphiques horaires